Time;durP1;ratioP1;P1;durP2;ratioP2;P2;SDS_P1;SDS_P2;PMS_P1;PMS_P2;Temp;Humidity;BMP_temperature;BMP_pressure;BME280_temperature;BME280_humidity;BME280_pressure;Samples;Min_cycle;Max_cycle;Signal;HPM_P1;HPM_P2
2022/03/06 00:02:34;;;;;;;10.50;6.28;;;;;;;9.11;28.84;100914.91;5020717;28;20053;-79
2022/03/06 00:05:18;;;;;;;16.17;7.22;;;;;;;9.01;28.74;100913.19;5026863;28;20064;-78
2022/03/06 00:08:03;;;;;;;12.98;7.72;;;;;;;8.99;29.65;100912.66;5033086;28;20049;-79
2022/03/06 00:10:50;;;;;;;11.73;7.03;;;;;;;8.98;28.16;100914.59;5006787;28;20048;-80
2022/03/06 00:13:35;;;;;;;13.82;9.00;;;;;;;8.83;29.59;100914.88;5025518;28;20064;-79
2022/03/06 00:16:20;;;;;;;;;;;;;;;8.70;29.22;100910.22;5033250;28;20512;-79
2022/03/06 00:19:04;;;;;;;16.73;9.02;;;;;;;8.55;29.84;100914.00;5013407;28;19913;-79
2022/03/06 00:21:49;;;;;;;;;;;;;;;8.42;29.71;100922.09;5032928;28;20048;-79
2022/03/06 00:24:33;;;;;;;20.33;9.35;;;;;;;8.50;30.32;100911.34;5032594;28;19913;-79
2022/03/06 00:27:19;;;;;;;15.38;9.85;;;;;;;8.42;30.09;100919.38;5034804;28;20405;-79
2022/03/06 00:30:06;;;;;;;13.55;7.40;;;;;;;8.46;30.48;100915.78;5032349;28;20036;-79
2022/03/06 00:32:51;;;;;;;15.23;9.18;;;;;;;8.52;31.09;100920.00;5032924;28;20053;-79
2022/03/06 00:35:36;;;;;;;14.63;7.90;;;;;;;8.59;30.60;100915.00;5032775;28;20052;-79
2022/03/06 00:38:22;;;;;;;17.92;9.50;;;;;;;8.66;30.58;100928.19;5032715;28;20056;-79
2022/03/06 00:41:07;;;;;;;15.27;8.63;;;;;;;8.44;31.32;100926.09;5022277;28;20048;-79
2022/03/06 00:43:51;;;;;;;14.48;8.05;;;;;;;8.67;31.64;100927.09;5020440;28;20571;-78
2022/03/06 00:46:36;;;;;;;19.08;7.22;;;;;;;8.66;30.36;100925.47;5018800;28;20052;-79
2022/03/06 00:49:21;;;;;;;11.13;6.57;;;;;;;8.72;30.43;100926.19;5022614;28;20113;-80
2022/03/06 00:52:06;;;;;;;13.52;7.03;;;;;;;9.00;29.97;100930.56;5031883;28;20524;-79
2022/03/06 00:54:51;;;;;;;13.80;7.43;;;;;;;8.92;29.75;100923.94;5031987;28;20052;-79
2022/03/06 00:57:35;;;;;;;17.67;9.87;;;;;;;8.97;30.60;100917.59;5023246;28;20048;-80
2022/03/06 01:00:21;;;;;;;15.23;8.48;;;;;;;8.84;31.65;100926.50;5023660;28;20287;-79
2022/03/06 01:03:08;;;;;;;11.80;6.53;;;;;;;8.74;31.69;100913.94;5012589;28;20060;-80
2022/03/06 01:05:53;;;;;;;15.57;9.43;;;;;;;8.84;30.32;100916.47;5022179;28;20056;-79
2022/03/06 01:08:38;;;;;;;11.82;7.88;;;;;;;8.86;29.66;100913.47;5020910;28;20056;-79
2022/03/06 01:11:23;;;;;;;12.60;7.78;;;;;;;8.84;29.58;100911.03;5032194;28;20040;-79
2022/03/06 01:14:08;;;;;;;15.00;7.55;;;;;;;8.61;30.16;100917.41;5031707;28;20044;-78
2022/03/06 01:16:53;;;;;;;12.00;7.10;;;;;;;8.63;30.41;100915.22;5035532;28;20048;-78
2022/03/06 01:19:38;;;;;;;13.77;8.38;;;;;;;8.62;30.14;100913.63;5031695;28;20049;-79
2022/03/06 01:22:22;;;;;;;12.53;7.63;;;;;;;8.81;29.51;100917.06;5014712;28;20059;-78
2022/03/06 01:25:07;;;;;;;12.40;8.38;;;;;;;8.82;30.74;100907.03;5012181;28;20280;-79
2022/03/06 01:27:52;;;;;;;15.20;7.65;;;;;;;8.95;30.77;100907.03;5013932;28;20077;-79
2022/03/06 01:30:37;;;;;;;16.42;8.70;;;;;;;8.86;29.78;100910.75;4999718;28;20049;-79
2022/03/06 01:33:22;;;;;;;12.48;7.60;;;;;;;8.75;30.55;100903.88;5012335;28;20073;-79
2022/03/06 01:36:07;;;;;;;12.45;7.95;;;;;;;8.90;29.35;100900.91;5014050;28;20407;-79
2022/03/06 01:38:52;;;;;;;18.63;9.95;;;;;;;8.99;30.38;100907.25;5013288;28;20053;-79
2022/03/06 01:41:37;;;;;;;16.80;10.25;;;;;;;8.76;30.06;100894.66;5022774;28;20049;-80
2022/03/06 01:44:22;;;;;;;14.93;7.88;;;;;;;8.88;30.16;100895.81;5031684;28;20048;-79
2022/03/06 01:47:07;;;;;;;16.77;10.80;;;;;;;8.85;30.03;100888.25;5028999;28;20056;-78
2022/03/06 01:49:52;;;;;;;15.38;8.82;;;;;;;8.61;30.53;100892.22;5031122;28;20037;-79
2022/03/06 01:52:36;;;;;;;13.10;7.47;;;;;;;8.61;31.72;100893.03;5019485;28;20061;-79
2022/03/06 01:55:25;;;;;;;19.93;10.80;;;;;;;8.63;31.55;100892.75;5031287;28;20660;-79
2022/03/06 01:58:11;;;;;;;22.67;9.93;;;;;;;8.63;30.81;100888.13;5023310;28;20076;-78
2022/03/06 02:00:56;;;;;;;20.77;10.80;;;;;;;8.64;31.13;100888.91;5018366;28;20048;-80
2022/03/06 02:03:41;;;;;;;19.17;11.27;;;;;;;8.52;31.17;100883.97;5038837;23;20050;-78
2022/03/06 02:06:27;;;;;;;10.80;7.45;;;;;;;8.60;31.10;100880.56;4975585;28;20520;-78
2022/03/06 02:09:13;;;;;;;16.00;9.38;;;;;;;8.54;31.46;100882.56;4975307;28;20522;-77
2022/03/06 02:15:07;;;;;;;16.30;10.55;;;;;;;8.53;30.40;100863.91;4975279;28;20510;-78
2022/03/06 02:17:53;;;;;;;15.68;9.75;;;;;;;8.48;30.89;100864.78;4975584;28;20053;-77
2022/03/06 02:20:38;;;;;;;16.67;9.98;;;;;;;8.45;31.70;100867.28;4975796;28;20046;-78
2022/03/06 02:23:24;;;;;;;18.83;10.60;;;;;;;8.52;32.09;100865.81;4995782;28;20069;-78
2022/03/06 02:26:09;;;;;;;20.08;10.30;;;;;;;8.59;32.37;100852.66;4994565;28;20053;-78
2022/03/06 02:28:54;;;;;;;20.40;10.75;;;;;;;8.39;31.54;100861.13;4994708;28;20076;-78
2022/03/06 02:31:39;;;;;;;19.73;10.38;;;;;;;8.41;31.50;100856.25;4989027;28;20053;-78
2022/03/06 02:34:24;;;;;;;16.00;10.50;;;;;;;8.47;31.34;100854.25;4974715;28;20546;-78
2022/03/06 02:37:09;;;;;;;15.55;8.48;;;;;;;8.58;31.53;100850.25;4974936;28;20046;-78
2022/03/06 02:39:54;;;;;;;18.85;10.50;;;;;;;8.68;31.47;100849.28;4974785;28;20045;-78
2022/03/06 02:42:42;;;;;;;15.50;8.10;;;;;;;8.62;33.43;100851.28;4975586;28;20077;-78
2022/03/06 02:45:27;;;;;;;17.48;9.95;;;;;;;8.82;35.40;100858.22;4974770;28;20061;-79
2022/03/06 02:48:12;;;;;;;14.48;7.95;;;;;;;8.80;33.77;100860.41;4975035;28;20054;-78
2022/03/06 02:50:57;;;;;;;16.63;8.82;;;;;;;8.76;34.36;100862.94;4974605;28;20042;-77
2022/03/06 02:53:42;;;;;;;12.45;7.70;;;;;;;8.57;34.12;100862.19;4991539;28;20049;-78
2022/03/06 02:56:28;;;;;;;13.15;8.23;;;;;;;8.47;35.02;100857.78;4997651;28;20061;-79
2022/03/06 02:59:13;;;;;;;16.40;10.02;;;;;;;8.46;34.26;100867.00;4996104;28;20049;-78
2022/03/06 03:01:58;;;;;;;15.45;9.82;;;;;;;8.41;35.97;100868.97;4994030;28;20038;-78
2022/03/06 03:04:43;;;;;;;18.40;12.05;;;;;;;8.20;34.04;100863.06;4974946;28;20069;-78
2022/03/06 03:07:28;;;;;;;15.18;8.60;;;;;;;8.16;33.99;100862.84;4974945;28;20058;-78
2022/03/06 03:10:15;;;;;;;17.20;9.90;;;;;;;8.10;33.50;100857.81;4974599;28;20050;-78
2022/03/06 03:13:00;;;;;;;15.80;10.48;;;;;;;8.07;33.41;100858.41;4978243;28;20062;-78
2022/03/06 03:15:45;;;;;;;28.65;11.43;;;;;;;8.09;33.83;100862.41;4974190;28;20070;-78
2022/03/06 03:18:30;;;;;;;14.80;9.20;;;;;;;8.07;33.70;100858.41;4978467;28;20069;-78
2022/03/06 03:21:14;;;;;;;15.93;9.00;;;;;;;8.22;33.43;100860.88;4976155;28;20558;-78
2022/03/06 03:23:59;;;;;;;19.83;11.68;;;;;;;7.95;34.12;100866.97;4974834;28;20049;-78
2022/03/06 03:26:43;;;;;;;21.10;9.73;;;;;;;8.13;35.23;100868.03;4973058;28;20066;-79
2022/03/06 03:29:28;;;;;;;13.20;8.20;;;;;;;8.18;36.48;100866.06;4977043;28;20563;-78
2022/03/06 03:32:13;;;;;;;12.02;7.15;;;;;;;8.20;35.23;100868.47;4975359;28;20042;-78
2022/03/06 03:34:58;;;;;;;14.35;7.63;;;;;;;8.36;37.20;100869.88;4990293;28;20065;-79
2022/03/06 03:37:43;;;;;;;12.15;7.00;;;;;;;8.30;37.15;100862.13;4994222;28;20102;-78
2022/03/06 03:40:27;;;;;;;16.63;8.57;;;;;;;8.48;34.27;100872.91;4995201;28;20049;-79
2022/03/06 03:43:13;;;;;;;14.18;8.45;;;;;;;8.42;38.57;100871.41;4977594;28;20526;-78
2022/03/06 03:45:57;;;;;;;19.45;10.98;;;;;;;8.39;35.92;100871.97;4973993;28;20054;-78
2022/03/06 03:48:42;;;;;;;16.55;9.52;;;;;;;8.34;35.49;100868.53;4974008;28;20045;-77
2022/03/06 03:51:27;;;;;;;13.83;7.87;;;;;;;8.25;34.57;100867.59;4973199;28;20064;-79
2022/03/06 03:54:13;;;;;;;11.88;8.02;;;;;;;8.31;33.72;100869.97;4963319;28;20296;-78
2022/03/06 03:56:58;;;;;;;18.80;10.75;;;;;;;8.32;34.12;100873.47;4981081;28;20411;-79
2022/03/06 03:59:42;;;;;;;16.58;9.52;;;;;;;8.15;33.98;100882.91;4967503;28;20058;-79
2022/03/06 04:02:27;;;;;;;12.75;8.00;;;;;;;8.13;33.71;100881.59;4980857;28;20049;-78
2022/03/06 04:05:12;;;;;;;13.70;8.65;;;;;;;8.16;33.72;100879.09;4976166;28;20045;-78
2022/03/06 04:07:57;;;;;;;19.77;10.25;;;;;;;7.97;33.95;100872.91;4993486;28;20057;-78
2022/03/06 04:10:42;;;;;;;16.10;8.57;;;;;;;8.18;33.91;100881.50;4996405;28;20415;-78
2022/03/06 04:13:27;;;;;;;14.40;8.15;;;;;;;8.08;34.52;100874.34;4992837;28;20057;-78
2022/03/06 04:16:12;;;;;;;17.63;10.70;;;;;;;7.85;35.15;100879.84;4979484;28;20415;-78
2022/03/06 04:18:57;;;;;;;13.02;7.65;;;;;;;7.71;35.54;100882.50;4973168;28;20054;-78
2022/03/06 04:21:41;;;;;;;17.90;10.03;;;;;;;7.82;35.98;100888.56;4973366;28;20048;-78
2022/03/06 04:24:26;;;;;;;17.30;8.30;;;;;;;7.82;35.07;100891.28;4973049;28;20050;-78
2022/03/06 04:27:11;;;;;;;18.60;8.68;;;;;;;7.87;35.84;100889.31;4990731;28;20415;-78
2022/03/06 04:29:56;;;;;;;16.55;8.88;;;;;;;7.83;35.37;100900.97;4992458;28;20045;-77
2022/03/06 04:32:41;;;;;;;16.92;8.98;;;;;;;8.03;37.74;100890.66;4993018;28;20053;-78
2022/03/06 04:35:26;;;;;;;20.90;10.87;;;;;;;8.23;39.87;100889.53;4990453;28;20407;-79
2022/03/06 04:38:11;;;;;;;13.27;7.93;;;;;;;8.10;39.13;100896.53;4973139;28;20053;-78
2022/03/06 04:40:56;;;;;;;17.88;10.77;;;;;;;8.18;37.77;100900.47;4973459;28;20046;-78
2022/03/06 04:43:40;;;;;;;22.47;11.30;;;;;;;7.99;36.96;100896.97;4976957;28;20061;-78
2022/03/06 04:46:25;;;;;;;16.17;10.57;;;;;;;8.01;36.73;100900.19;4972862;28;20070;-78
2022/03/06 04:49:10;;;;;;;17.80;10.90;;;;;;;8.09;38.62;100894.09;4973814;28;20811;-78
2022/03/06 04:51:55;;;;;;;39.63;23.08;;;;;;;8.01;38.30;100895.59;4972880;28;20065;-78
2022/03/06 04:54:39;;;;;;;17.98;10.02;;;;;;;8.04;41.05;100902.31;4972059;28;20046;-78
2022/03/06 04:57:24;;;;;;;21.00;11.20;;;;;;;7.96;37.97;100900.28;4973768;28;20046;-78
2022/03/06 05:00:09;;;;;;;16.73;10.13;;;;;;;7.96;40.45;100902.97;4972436;28;20054;-78
2022/03/06 05:02:54;;;;;;;16.90;10.65;;;;;;;8.21;37.06;100888.25;4972668;28;20065;-77
2022/03/06 05:05:38;;;;;;;18.33;9.93;;;;;;;8.23;36.35;100894.97;4974544;28;20050;-78
2022/03/06 05:08:26;;;;;;;20.83;10.30;;;;;;;8.25;35.95;100895.47;4975129;28;20054;-79
2022/03/06 05:11:11;;;;;;;17.13;10.35;;;;;;;8.26;35.97;100899.81;4978921;28;20053;-79
2022/03/06 05:13:55;;;;;;;18.40;9.63;;;;;;;8.21;35.01;100897.19;4976589;28;20054;-78
2022/03/06 05:16:40;;;;;;;11.95;7.20;;;;;;;8.18;35.74;100893.13;4972511;28;20289;-77
2022/03/06 05:19:25;;;;;;;21.67;11.52;;;;;;;8.18;35.83;100896.97;4997410;28;20053;-77
2022/03/06 05:22:10;;;;;;;13.50;7.78;;;;;;;8.23;34.77;100899.59;4991875;28;20045;-77
2022/03/06 05:24:55;;;;;;;14.05;7.13;;;;;;;8.18;36.92;100895.84;4991932;28;20058;-78
2022/03/06 05:27:40;;;;;;;17.77;7.53;;;;;;;8.18;36.31;100895.84;4995275;28;20406;-77
2022/03/06 05:30:25;;;;;;;16.90;7.57;;;;;;;8.20;35.65;100900.97;4991894;28;20057;-78
2022/03/06 05:33:10;;;;;;;9.68;6.55;;;;;;;8.10;35.13;100893.81;4976221;28;20054;-78
2022/03/06 05:35:55;;;;;;;13.13;7.68;;;;;;;8.13;34.53;100898.63;4980460;28;20454;-77
2022/03/06 05:38:40;;;;;;;12.82;7.55;;;;;;;8.15;34.29;100909.19;4977375;28;20054;-78
2022/03/06 05:41:25;;;;;;;11.18;7.75;;;;;;;8.13;34.85;100912.19;4978619;28;20427;-78
2022/03/06 05:44:09;;;;;;;11.13;7.22;;;;;;;8.21;34.88;100909.91;4957248;28;20105;-78
2022/03/06 05:46:54;;;;;;;20.90;9.20;;;;;;;7.96;34.88;100913.81;4976038;28;20054;-77
2022/03/06 05:49:39;;;;;;;13.55;7.65;;;;;;;8.01;34.69;100902.91;4981003;28;20050;-77
2022/03/06 05:52:23;;;;;;;16.40;8.53;;;;;;;8.04;35.93;100915.84;4975897;28;20522;-78
2022/03/06 05:55:09;;;;;;;11.45;6.95;;;;;;;8.08;35.61;100917.66;4975863;28;20069;-78
2022/03/06 05:57:54;;;;;;;12.98;8.55;;;;;;;8.14;34.33;100918.41;4972561;28;20050;-78
2022/03/06 06:00:38;;;;;;;13.07;7.10;;;;;;;8.26;34.39;100913.34;4996192;28;20049;-79
2022/03/06 06:03:23;;;;;;;14.35;6.35;;;;;;;8.39;34.90;100911.81;4990850;28;20304;-78
2022/03/06 06:06:08;;;;;;;14.25;6.15;;;;;;;8.39;34.06;100914.53;4982133;28;20041;-78
2022/03/06 06:08:54;;;;;;;11.77;6.40;;;;;;;8.45;34.17;100906.03;4976191;28;20050;-77
2022/03/06 06:11:39;;;;;;;15.30;8.43;;;;;;;8.49;33.43;100912.47;4976774;28;20046;-78
2022/03/06 06:14:23;;;;;;;10.55;6.65;;;;;;;8.47;33.50;100911.97;4977455;28;20057;-79
2022/03/06 06:17:08;;;;;;;11.65;7.07;;;;;;;8.45;33.19;100922.28;4978390;28;20053;-79
2022/03/06 06:19:53;;;;;;;10.93;6.43;;;;;;;8.51;32.59;100918.41;4982188;28;20050;-79
2022/03/06 06:22:38;;;;;;;9.63;5.57;;;;;;;8.45;33.36;100930.41;4984473;28;20793;-79
2022/03/06 06:25:23;;;;;;;9.40;5.88;;;;;;;8.33;33.43;100919.22;5002242;28;20069;-79
2022/03/06 06:28:08;;;;;;;10.20;6.10;;;;;;;8.38;32.75;100926.50;4979423;28;20061;-79
2022/03/06 06:30:53;;;;;;;10.73;6.43;;;;;;;8.41;33.08;100929.41;4977858;28;20050;-78
2022/03/06 06:33:37;;;;;;;13.40;7.63;;;;;;;8.36;33.28;100932.19;4976952;28;20066;-78
2022/03/06 06:36:22;;;;;;;10.75;6.85;;;;;;;8.36;33.58;100936.81;4974989;28;20301;-77
2022/03/06 06:39:09;;;;;;;9.02;5.93;;;;;;;8.36;31.73;100929.47;4975969;28;20057;-78
2022/03/06 06:41:54;;;;;;;11.27;6.95;;;;;;;8.47;31.60;100938.25;4991174;28;20053;-78
2022/03/06 06:44:39;;;;;;;11.20;6.07;;;;;;;8.46;32.00;100940.16;4986395;28;20439;-78
2022/03/06 06:47:24;;;;;;;9.05;5.05;;;;;;;8.42;32.06;100941.84;4963010;28;20046;-78
2022/03/06 06:50:09;;;;;;;11.60;6.63;;;;;;;8.46;32.97;100942.88;4974537;28;20049;-78
2022/03/06 06:52:54;;;;;;;9.73;5.75;;;;;;;8.53;32.05;100950.63;4956306;29;20074;-78
2022/03/06 06:55:38;;;;;;;10.35;4.82;;;;;;;8.58;32.52;100945.13;4958759;28;20050;-79
2022/03/06 06:58:23;;;;;;;9.82;5.95;;;;;;;8.61;34.36;100949.13;4958256;28;20123;-79
2022/03/06 07:01:08;;;;;;;;;;;;;;;8.75;34.64;100955.41;4980997;28;20045;-79
2022/03/06 07:03:53;;;;;;;12.80;6.53;;;;;;;8.69;37.32;100948.44;4978362;28;20394;-78
2022/03/06 07:06:38;;;;;;;10.52;5.43;;;;;;;8.85;37.57;100957.94;4963094;28;20057;-79
2022/03/06 07:09:22;;;;;;;12.37;5.60;;;;;;;8.99;36.63;100959.56;4980343;28;20054;-79
2022/03/06 07:12:07;;;;;;;8.73;4.90;;;;;;;8.94;33.17;100958.84;4981115;28;20042;-77
2022/03/06 07:14:52;;;;;;;8.82;6.05;;;;;;;8.97;32.61;100958.28;4974782;28;20045;-77
2022/03/06 07:17:36;;;;;;;12.95;6.85;;;;;;;9.04;31.95;100958.69;4988251;28;20069;-78
2022/03/06 07:20:21;;;;;;;11.13;6.30;;;;;;;9.17;31.31;100962.53;4969705;28;20046;-77
2022/03/06 07:23:06;;;;;;;7.90;4.85;;;;;;;9.23;31.33;100958.63;4970430;28;20062;-79
2022/03/06 07:25:51;;;;;;;30.23;8.02;;;;;;;9.24;31.61;100965.66;4983778;28;20157;-78
2022/03/06 07:28:36;;;;;;;20.45;6.93;;;;;;;9.50;30.07;100966.75;4995996;28;20049;-77
2022/03/06 07:31:21;;;;;;;12.25;5.53;;;;;;;9.31;29.66;100957.91;4994064;28;20410;-77
2022/03/06 07:34:06;;;;;;;15.43;5.65;;;;;;;9.15;28.86;100957.41;4992302;28;20049;-77
2022/03/06 07:36:51;;;;;;;8.73;4.47;;;;;;;9.17;28.50;100963.34;4983431;28;20526;-77
2022/03/06 07:39:35;;;;;;;12.77;5.43;;;;;;;9.15;29.27;100967.44;4973649;28;20054;-77
2022/03/06 07:42:20;;;;;;;11.68;5.18;;;;;;;9.19;29.73;100965.75;4973525;28;20643;-77
2022/03/06 07:45:05;;;;;;;15.88;6.53;;;;;;;9.08;29.23;100965.13;4974129;28;20054;-77
2022/03/06 07:47:50;;;;;;;11.45;5.00;;;;;;;9.15;29.50;100967.44;4988450;28;20054;-77
2022/03/06 07:50:35;;;;;;;10.25;5.47;;;;;;;9.18;29.81;100970.38;4990795;28;20053;-77
2022/03/06 07:53:20;;;;;;;7.50;4.93;;;;;;;9.29;27.74;100971.81;4995767;28;20069;-78
2022/03/06 07:56:05;;;;;;;7.78;5.07;;;;;;;9.33;27.48;100961.16;4977863;28;20127;-77
2022/03/06 07:58:50;;;;;;;6.70;3.75;;;;;;;9.11;27.34;100967.25;4966110;28;20054;-77
2022/03/06 08:01:34;;;;;;;11.07;5.85;;;;;;;9.10;27.53;100968.34;4968142;28;20062;-77
2022/03/06 08:04:19;;;;;;;7.15;4.28;;;;;;;9.25;27.73;100970.78;4959522;28;20057;-77
2022/03/06 08:07:05;;;;;;;10.90;5.38;;;;;;;9.31;27.36;100961.44;4981959;28;20045;-77
2022/03/06 08:09:50;;;;;;;10.70;5.85;;;;;;;9.37;27.67;100967.56;4978655;28;20411;-77
2022/03/06 08:12:34;;;;;;;8.40;5.05;;;;;;;9.50;27.65;100966.00;5013742;22;20049;-79
2022/03/06 08:15:19;;;;;;;7.32;4.05;;;;;;;9.49;27.07;100967.09;5010173;28;20064;-77
2022/03/06 08:18:04;;;;;;;7.95;4.65;;;;;;;9.39;26.66;100966.19;5006359;28;20044;-78
2022/03/06 08:20:49;;;;;;;7.00;4.28;;;;;;;9.32;27.28;100970.38;5008483;28;20525;-78
2022/03/06 08:23:33;;;;;;;7.83;4.93;;;;;;;9.39;26.36;100976.22;4988145;28;20065;-78
2022/03/06 08:26:18;;;;;;;6.70;4.38;;;;;;;9.33;26.60;100972.81;4996128;28;20096;-78
2022/03/06 08:29:03;;;;;;;5.60;3.97;;;;;;;9.29;27.58;100971.00;4996588;28;20045;-78
2022/03/06 08:31:49;;;;;;;8.32;5.07;;;;;;;9.38;27.01;100972.72;4983867;28;20053;-78
2022/03/06 08:34:34;;;;;;;9.43;5.73;;;;;;;9.39;27.23;100971.63;4992096;28;20049;-77
2022/03/06 08:37:19;;;;;;;9.30;5.70;;;;;;;9.38;27.01;100970.00;5004909;28;20654;-79
2022/03/06 08:40:05;;;;;;;11.18;5.18;;;;;;;9.48;27.56;100979.03;4992171;28;20040;-78
2022/03/06 08:42:50;;;;;;;11.95;5.60;;;;;;;9.55;26.73;100976.75;5003638;28;20056;-79
2022/03/06 08:45:36;;;;;;;7.25;4.20;;;;;;;9.56;26.71;100981.03;4996311;28;20054;-79
2022/03/06 08:48:21;;;;;;;9.30;5.25;;;;;;;9.40;27.48;100975.91;4998024;28;20108;-79
2022/03/06 08:51:07;;;;;;;5.28;3.67;;;;;;;9.34;27.18;100988.00;4994819;28;20410;-80
2022/03/06 08:53:52;;;;;;;8.48;4.75;;;;;;;9.36;28.58;100980.34;4992803;28;20053;-79
2022/03/06 08:56:36;;;;;;;11.40;6.07;;;;;;;9.33;27.30;100972.81;4994653;28;20411;-80
2022/03/06 08:59:21;;;;;;;10.70;4.90;;;;;;;9.23;26.41;100972.19;4996062;28;20049;-78
2022/03/06 09:02:07;;;;;;;6.38;4.53;;;;;;;9.25;27.81;100973.50;4980505;28;20049;-78
2022/03/06 09:04:51;;;;;;;9.55;5.63;;;;;;;9.32;27.50;100982.06;4972804;28;20407;-78
2022/03/06 09:07:36;;;;;;;8.15;4.72;;;;;;;9.35;27.75;100980.63;4986680;28;20053;-79
2022/03/06 09:10:22;;;;;;;6.90;4.22;;;;;;;9.39;27.52;100977.03;4981031;28;20057;-78
2022/03/06 09:13:08;;;;;;;9.35;5.38;;;;;;;9.53;26.92;100978.94;4998282;28;20038;-77
2022/03/06 09:15:53;;;;;;;10.48;5.97;;;;;;;9.42;28.01;100976.44;4996156;28;20050;-78
2022/03/06 09:18:38;;;;;;;8.68;5.63;;;;;;;9.40;27.55;100978.63;5012420;28;20049;-78
2022/03/06 09:21:22;;;;;;;8.52;5.03;;;;;;;9.43;27.37;100979.94;4996501;28;20329;-78
2022/03/06 09:24:08;;;;;;;11.20;5.72;;;;;;;9.21;27.15;100979.81;4991512;28;20046;-78
2022/03/06 09:26:52;;;;;;;9.77;5.93;;;;;;;9.36;27.66;100976.81;4992824;28;20058;-78
2022/03/06 09:29:38;;;;;;;8.18;5.55;;;;;;;9.62;27.20;100977.13;4963423;28;20046;-78
2022/03/06 09:32:23;;;;;;;10.88;5.78;;;;;;;9.50;28.38;100972.19;4976827;28;20562;-79
2022/03/06 09:35:10;;;;;;;7.07;4.93;;;;;;;9.56;29.17;100970.19;4965870;28;20050;-78
2022/03/06 09:37:54;;;;;;;9.75;6.18;;;;;;;9.58;28.12;100973.41;4977107;28;20046;-79
2022/03/06 09:40:42;;;;;;;8.50;4.60;;;;;;;9.54;26.87;100967.00;4981832;28;20045;-78
2022/03/06 09:43:28;;;;;;;9.98;6.35;;;;;;;9.66;26.94;100972.69;4996045;28;20045;-78
2022/03/06 09:46:13;;;;;;;10.02;6.28;;;;;;;9.65;27.22;100968.41;4991795;28;20045;-78
2022/03/06 09:48:58;;;;;;;10.05;5.22;;;;;;;9.79;26.97;100969.19;4992189;28;20057;-78
2022/03/06 09:51:43;;;;;;;6.05;4.15;;;;;;;9.91;26.84;100972.16;4995792;28;20045;-78
2022/03/06 09:54:29;;;;;;;9.52;4.63;;;;;;;9.86;26.41;100970.38;5000502;28;20048;-78
2022/03/06 09:57:19;;;;;;;10.30;6.60;;;;;;;9.96;26.18;100965.81;5002923;28;20053;-77
2022/03/06 10:00:06;;;;;;;8.35;5.57;;;;;;;10.00;26.11;100964.94;5004531;28;20525;-78
2022/03/06 10:02:51;;;;;;;18.10;5.78;;;;;;;10.51;30.71;100967.34;4997412;28;20454;-80
2022/03/06 10:05:39;;;;;;;6.75;4.15;;;;;;;11.03;27.54;100954.84;5002204;28;20069;-79
2022/03/06 10:08:30;;;;;;;11.48;5.40;;;;;;;11.70;29.73;100962.81;4998195;28;20522;-79
2022/03/06 10:11:15;;;;;;;10.10;6.10;;;;;;;11.69;27.33;100950.31;4995312;28;20053;-79
2022/03/06 10:14:00;;;;;;;10.93;5.93;;;;;;;11.27;26.45;100948.25;4995476;28;20101;-79
2022/03/06 10:17:15;;;;;;;8.30;5.13;;;;;;;10.96;24.78;100954.50;4997832;28;20410;-79
2022/03/06 10:20:00;;;;;;;9.75;5.80;;;;;;;10.86;25.03;100948.53;4994587;28;20540;-79
2022/03/06 10:22:45;;;;;;;6.88;3.97;;;;;;;10.13;25.40;100946.97;5000317;28;20455;-79
2022/03/06 10:25:30;;;;;;;9.27;5.30;;;;;;;10.44;25.18;100949.81;5004510;28;20077;-79
2022/03/06 10:28:15;;;;;;;7.32;4.15;;;;;;;10.42;24.57;100944.69;4976370;28;20049;-80
2022/03/06 10:31:04;;;;;;;10.07;5.47;;;;;;;11.12;25.04;100936.63;4994596;28;20047;-79
2022/03/06 10:33:59;;;;;;;14.40;6.30;;;;;;;12.47;27.49;100940.31;4982859;28;20057;-80
2022/03/06 10:36:47;;;;;;;10.48;6.15;;;;;;;10.79;25.30;100910.06;4980844;28;20049;-79
2022/03/06 10:39:43;;;;;;;10.88;6.18;;;;;;;10.38;25.31;100926.59;5000089;28;20053;-78
2022/03/06 10:42:28;;;;;;;9.13;5.88;;;;;;;10.49;24.85;100928.75;4995392;28;20053;-79
2022/03/06 10:45:23;;;;;;;8.87;5.57;;;;;;;10.49;25.26;100925.22;4991228;28;20061;-80
2022/03/06 10:48:08;;;;;;;10.70;6.10;;;;;;;10.77;24.56;100921.25;4980397;28;20292;-81
2022/03/06 10:50:58;;;;;;;10.68;6.13;;;;;;;11.01;24.16;100921.72;4992656;28;20061;-80
2022/03/06 10:53:43;;;;;;;9.95;5.72;;;;;;;10.39;24.86;100917.31;4994324;28;20057;-80
2022/03/06 10:56:28;;;;;;;7.72;5.00;;;;;;;11.07;23.89;100904.13;4983312;28;20049;-80
2022/03/06 10:59:19;;;;;;;7.65;4.38;;;;;;;11.43;23.59;100914.00;4994248;28;20057;-80
2022/03/06 11:02:04;;;;;;;11.43;6.72;;;;;;;11.38;23.51;100908.72;4994758;28;20049;-80
2022/03/06 11:04:53;;;;;;;8.65;5.63;;;;;;;11.86;23.20;100912.22;5000159;28;20053;-81
2022/03/06 11:07:37;;;;;;;10.18;6.18;;;;;;;12.00;23.39;100906.63;4994521;28;20049;-81
2022/03/06 11:10:23;;;;;;;197.57;11.77;;;;;;;11.91;22.72;100898.44;4983713;28;20053;-81
2022/03/06 11:13:08;;;;;;;10.38;4.40;;;;;;;11.68;23.03;100901.59;4993860;28;20039;-80
2022/03/06 11:15:54;;;;;;;11.05;6.15;;;;;;;11.98;22.42;100906.16;4981022;28;20057;-81
2022/03/06 11:18:39;;;;;;;19.20;5.78;;;;;;;12.31;22.19;100901.00;5003202;28;20513;-80
2022/03/06 11:21:25;;;;;;;7.40;4.88;;;;;;;11.67;22.32;100892.63;5013372;28;20068;-81
2022/03/06 11:24:19;;;;;;;12.93;6.18;;;;;;;12.07;22.63;100892.53;5008573;28;20058;-81
2022/03/06 11:27:20;;;;;;;9.30;5.72;;;;;;;11.85;22.50;100897.00;4966973;28;20054;-81
2022/03/06 11:30:18;;;;;;;10.50;5.82;;;;;;;12.64;21.73;100893.94;4980177;28;20443;-81
2022/03/06 11:33:08;;;;;;;10.50;6.00;;;;;;;13.03;21.33;100887.38;4986321;28;20053;-80
2022/03/06 11:35:54;;;;;;;10.77;6.18;;;;;;;13.85;21.04;100875.06;4993849;28;20049;-80
2022/03/06 11:38:40;;;;;;;13.63;6.32;;;;;;;15.89;18.48;100882.41;4987950;28;20046;-81
2022/03/06 11:41:26;;;;;;;10.02;6.25;;;;;;;20.28;14.47;100879.84;4995528;28;20054;-81
2022/03/06 11:44:37;;;;;;;10.88;6.20;;;;;;;20.52;13.80;100873.84;4978905;28;20045;-79
2022/03/06 11:47:39;;;;;;;10.32;7.15;;;;;;;20.16;13.94;100875.41;5003565;28;20073;-80
2022/03/06 11:50:24;;;;;;;16.02;6.82;;;;;;;25.75;10.10;100877.97;4982445;28;20041;-81
2022/03/06 11:53:20;;;;;;;11.77;7.20;;;;;;;28.00;8.54;100877.72;4976705;28;20045;-79
2022/03/06 11:56:46;;;;;;;9.77;5.72;;;;;;;29.89;7.49;100874.84;4998101;28;20434;-81
2022/03/06 11:59:34;;;;;;;9.00;6.03;;;;;;;27.91;8.43;100860.75;4991762;28;20049;-80
2022/03/06 12:02:19;;;;;;;36.15;7.10;;;;;;;27.28;8.68;100859.16;4999171;28;20053;-82
2022/03/06 12:05:05;;;;;;;13.88;6.63;;;;;;;21.30;13.38;100852.47;4992740;28;20057;-80
2022/03/06 12:07:50;;;;;;;;;;;;;;;20.11;14.58;100850.09;4992404;28;20407;-81
2022/03/06 12:10:35;;;;;;;11.07;7.55;;;;;;;17.67;16.58;100836.47;4998277;28;20378;-79
2022/03/06 12:13:20;;;;;;;;;;;;;;;21.64;12.88;100840.03;4990415;28;20054;-81
2022/03/06 12:16:11;;;;;;;8.38;5.60;;;;;;;26.68;9.66;100835.75;4996322;28;19914;-81
2022/03/06 12:19:03;;;;;;;14.68;7.13;;;;;;;29.61;8.00;100842.75;4992374;28;20429;-80
2022/03/06 12:21:48;;;;;;;10.48;6.65;;;;;;;29.67;7.29;100845.78;4994414;28;20384;-82
2022/03/06 12:24:33;;;;;;;10.73;8.40;;;;;;;31.33;6.71;100835.03;4995121;28;20069;-81
2022/03/06 12:27:24;;;;;;;9.75;6.72;;;;;;;30.03;7.17;100834.38;4997751;28;20049;-79
2022/03/06 12:30:11;;;;;;;8.80;6.13;;;;;;;31.97;6.67;100826.28;4999325;28;20065;-78
2022/03/06 12:32:56;;;;;;;9.02;6.63;;;;;;;30.79;7.06;100823.97;4973544;28;20065;-79
2022/03/06 12:35:41;;;;;;;9.30;7.00;;;;;;;31.55;6.82;100823.00;4979169;28;20058;-80
2022/03/06 12:38:27;;;;;;;15.65;6.55;;;;;;;25.73;10.26;100815.53;5002021;28;20411;-79
2022/03/06 12:41:12;;;;;;;9.60;6.57;;;;;;;20.20;14.21;100815.47;4992567;28;20411;-79
2022/03/06 12:44:03;;;;;;;12.80;8.25;;;;;;;17.20;16.63;100797.25;4992733;28;20522;-80
2022/03/06 12:46:48;;;;;;;13.35;8.20;;;;;;;16.40;17.20;100792.13;4992654;28;20049;-82
2022/03/06 12:49:33;;;;;;;9.98;6.93;;;;;;;15.50;18.21;100790.72;4986971;28;20530;-82
2022/03/06 12:52:25;;;;;;;17.20;7.28;;;;;;;15.10;18.90;100785.19;5001822;28;20415;-82
2022/03/06 12:55:16;;;;;;;14.57;7.40;;;;;;;15.20;18.38;100784.72;5011316;28;20053;-79
2022/03/06 12:58:00;;;;;;;14.65;8.27;;;;;;;21.90;12.89;100777.25;4991931;28;20049;-81